sensor_id;sensor_type;location;lat;lon;timestamp;temperature;humidity
35497;DHT22;21609;49.298;6.844;2023-05-10T00:01:43;20.30;58.20
35497;DHT22;21609;49.298;6.844;2023-05-10T00:04:08;20.30;58.40
35497;DHT22;21609;49.298;6.844;2023-05-10T00:06:34;20.30;58.30
35497;DHT22;21609;49.298;6.844;2023-05-10T00:08:59;20.30;58.40
35497;DHT22;21609;49.298;6.844;2023-05-10T00:11:25;20.30;58.10
35497;DHT22;21609;49.298;6.844;2023-05-10T00:13:51;20.30;59.00
35497;DHT22;21609;49.298;6.844;2023-05-10T00:16:16;20.30;58.40
35497;DHT22;21609;49.298;6.844;2023-05-10T00:18:42;20.30;58.20
35497;DHT22;21609;49.298;6.844;2023-05-10T00:21:07;20.30;58.30
35497;DHT22;21609;49.298;6.844;2023-05-10T00:23:33;20.30;58.30
35497;DHT22;21609;49.298;6.844;2023-05-10T00:25:58;20.30;58.20
35497;DHT22;21609;49.298;6.844;2023-05-10T00:28:24;20.30;58.00
35497;DHT22;21609;49.298;6.844;2023-05-10T00:30:50;20.30;58.80
35497;DHT22;21609;49.298;6.844;2023-05-10T00:33:15;20.20;58.40
35497;DHT22;21609;49.298;6.844;2023-05-10T00:35:41;20.20;58.10
35497;DHT22;21609;49.298;6.844;2023-05-10T00:38:06;20.30;58.30
35497;DHT22;21609;49.298;6.844;2023-05-10T00:40:32;20.20;58.20
35497;DHT22;21609;49.298;6.844;2023-05-10T00:42:58;20.20;58.30
35497;DHT22;21609;49.298;6.844;2023-05-10T00:45:24;20.20;58.10
35497;DHT22;21609;49.298;6.844;2023-05-10T00:47:51;20.30;58.30
35497;DHT22;21609;49.298;6.844;2023-05-10T00:50:20;20.20;58.50
35497;DHT22;21609;49.298;6.844;2023-05-10T00:52:46;20.20;58.40
35497;DHT22;21609;49.298;6.844;2023-05-10T00:55:12;20.20;58.50
35497;DHT22;21609;49.298;6.844;2023-05-10T00:57:38;20.20;58.30
35497;DHT22;21609;49.298;6.844;2023-05-10T01:00:04;20.20;58.50
35497;DHT22;21609;49.298;6.844;2023-05-10T01:02:30;20.20;58.40
35497;DHT22;21609;49.298;6.844;2023-05-10T01:04:55;20.20;58.40
35497;DHT22;21609;49.298;6.844;2023-05-10T01:07:21;20.20;58.30
35497;DHT22;21609;49.298;6.844;2023-05-10T01:09:47;20.20;58.40
35497;DHT22;21609;49.298;6.844;2023-05-10T01:12:12;20.20;58.20
35497;DHT22;21609;49.298;6.844;2023-05-10T01:14:38;20.20;58.40
35497;DHT22;21609;49.298;6.844;2023-05-10T01:17:05;20.20;58.30
35497;DHT22;21609;49.298;6.844;2023-05-10T01:19:31;20.20;58.40
35497;DHT22;21609;49.298;6.844;2023-05-10T01:24:57;20.20;58.10
35497;DHT22;21609;49.298;6.844;2023-05-10T01:30:16;20.10;58.30
35497;DHT22;21609;49.298;6.844;2023-05-10T01:33:18;20.10;58.00
35497;DHT22;21609;49.298;6.844;2023-05-10T01:38:44;20.10;58.10
35497;DHT22;21609;49.298;6.844;2023-05-10T01:44:16;20.10;58.70
35497;DHT22;21609;49.298;6.844;2023-05-10T01:46:43;20.10;58.00
35497;DHT22;21609;49.298;6.844;2023-05-10T01:49:23;20.10;58.30
35497;DHT22;21609;49.298;6.844;2023-05-10T01:51:56;20.10;58.50
35497;DHT22;21609;49.298;6.844;2023-05-10T01:54:24;20.10;58.30
35497;DHT22;21609;49.298;6.844;2023-05-10T01:56:55;20.10;58.30
35497;DHT22;21609;49.298;6.844;2023-05-10T01:59:29;20.10;58.20
35497;DHT22;21609;49.298;6.844;2023-05-10T02:01:57;20.10;58.00
35497;DHT22;21609;49.298;6.844;2023-05-10T02:04:24;20.10;58.40
35497;DHT22;21609;49.298;6.844;2023-05-10T02:06:51;20.10;58.20
35497;DHT22;21609;49.298;6.844;2023-05-10T02:09:18;20.00;58.10
35497;DHT22;21609;49.298;6.844;2023-05-10T02:11:45;20.10;58.20
35497;DHT22;21609;49.298;6.844;2023-05-10T02:14:14;20.10;58.00
35497;DHT22;21609;49.298;6.844;2023-05-10T02:16:41;20.00;58.00
35497;DHT22;21609;49.298;6.844;2023-05-10T02:19:08;20.00;58.00
35497;DHT22;21609;49.298;6.844;2023-05-10T02:21:35;20.00;58.10
35497;DHT22;21609;49.298;6.844;2023-05-10T02:24:01;20.10;58.30
35497;DHT22;21609;49.298;6.844;2023-05-10T02:26:27;20.10;58.20
35497;DHT22;21609;49.298;6.844;2023-05-10T02:28:55;20.10;58.30
35497;DHT22;21609;49.298;6.844;2023-05-10T02:31:22;20.10;58.20
35497;DHT22;21609;49.298;6.844;2023-05-10T02:33:49;20.00;58.00
35497;DHT22;21609;49.298;6.844;2023-05-10T02:36:16;20.10;58.00
35497;DHT22;21609;49.298;6.844;2023-05-10T02:38:43;20.00;58.30
35497;DHT22;21609;49.298;6.844;2023-05-10T02:41:09;20.10;58.40
35497;DHT22;21609;49.298;6.844;2023-05-10T02:43:37;20.00;58.10
35497;DHT22;21609;49.298;6.844;2023-05-10T02:46:03;20.00;58.00
35497;DHT22;21609;49.298;6.844;2023-05-10T02:48:29;20.00;58.00
35497;DHT22;21609;49.298;6.844;2023-05-10T02:50:56;20.00;58.40
35497;DHT22;21609;49.298;6.844;2023-05-10T02:53:31;20.00;58.30
35497;DHT22;21609;49.298;6.844;2023-05-10T02:55:59;20.00;58.00
35497;DHT22;21609;49.298;6.844;2023-05-10T02:58:25;20.00;58.50
35497;DHT22;21609;49.298;6.844;2023-05-10T03:00:52;20.00;58.30
35497;DHT22;21609;49.298;6.844;2023-05-10T03:03:17;20.00;58.20
35497;DHT22;21609;49.298;6.844;2023-05-10T03:05:43;20.00;58.00
35497;DHT22;21609;49.298;6.844;2023-05-10T03:08:08;20.00;58.30
35497;DHT22;21609;49.298;6.844;2023-05-10T03:10:41;20.00;58.00
35497;DHT22;21609;49.298;6.844;2023-05-10T03:14:04;20.00;58.20
35497;DHT22;21609;49.298;6.844;2023-05-10T03:16:41;20.00;57.80
35497;DHT22;21609;49.298;6.844;2023-05-10T03:21:38;20.00;58.00
35497;DHT22;21609;49.298;6.844;2023-05-10T03:24:08;20.00;58.20
35497;DHT22;21609;49.298;6.844;2023-05-10T03:26:37;20.00;58.20
35497;DHT22;21609;49.298;6.844;2023-05-10T03:29:05;20.00;58.30
35497;DHT22;21609;49.298;6.844;2023-05-10T03:31:31;20.00;58.20
35497;DHT22;21609;49.298;6.844;2023-05-10T03:33:57;20.00;58.30
35497;DHT22;21609;49.298;6.844;2023-05-10T03:36:23;20.00;58.00
35497;DHT22;21609;49.298;6.844;2023-05-10T03:38:49;20.00;58.00
35497;DHT22;21609;49.298;6.844;2023-05-10T03:41:14;19.90;58.00
35497;DHT22;21609;49.298;6.844;2023-05-10T03:43:40;19.90;57.90
35497;DHT22;21609;49.298;6.844;2023-05-10T03:46:06;19.90;58.10
35497;DHT22;21609;49.298;6.844;2023-05-10T03:48:32;20.00;58.10
35497;DHT22;21609;49.298;6.844;2023-05-10T03:50:58;19.90;58.00
35497;DHT22;21609;49.298;6.844;2023-05-10T03:53:24;19.90;58.20
35497;DHT22;21609;49.298;6.844;2023-05-10T03:55:49;19.90;58.10
35497;DHT22;21609;49.298;6.844;2023-05-10T03:58:15;19.90;58.00
35497;DHT22;21609;49.298;6.844;2023-05-10T04:00:40;19.90;58.10
35497;DHT22;21609;49.298;6.844;2023-05-10T04:03:09;19.90;58.00
35497;DHT22;21609;49.298;6.844;2023-05-10T04:05:35;19.90;58.00
35497;DHT22;21609;49.298;6.844;2023-05-10T04:08:01;19.90;58.20
35497;DHT22;21609;49.298;6.844;2023-05-10T04:10:27;19.90;58.00
35497;DHT22;21609;49.298;6.844;2023-05-10T04:12:53;19.90;58.00
35497;DHT22;21609;49.298;6.844;2023-05-10T04:15:19;19.90;58.20
35497;DHT22;21609;49.298;6.844;2023-05-10T04:17:44;19.90;58.00
35497;DHT22;21609;49.298;6.844;2023-05-10T04:20:10;19.90;58.00
35497;DHT22;21609;49.298;6.844;2023-05-10T04:22:36;19.90;57.90
35497;DHT22;21609;49.298;6.844;2023-05-10T04:25:02;19.90;58.00
35497;DHT22;21609;49.298;6.844;2023-05-10T04:27:27;19.90;57.90
35497;DHT22;21609;49.298;6.844;2023-05-10T04:29:53;19.80;58.00
35497;DHT22;21609;49.298;6.844;2023-05-10T04:32:19;19.90;57.90
35497;DHT22;21609;49.298;6.844;2023-05-10T04:34:45;19.80;57.90
35497;DHT22;21609;49.298;6.844;2023-05-10T04:37:11;19.80;58.00
35497;DHT22;21609;49.298;6.844;2023-05-10T04:39:36;19.80;58.20
35497;DHT22;21609;49.298;6.844;2023-05-10T04:42:03;19.80;58.10
35497;DHT22;21609;49.298;6.844;2023-05-10T04:44:29;19.80;58.00
35497;DHT22;21609;49.298;6.844;2023-05-10T04:46:55;19.80;58.00
35497;DHT22;21609;49.298;6.844;2023-05-10T04:49:20;19.80;57.90
35497;DHT22;21609;49.298;6.844;2023-05-10T04:51:46;19.80;58.10
35497;DHT22;21609;49.298;6.844;2023-05-10T04:54:12;19.80;58.10
35497;DHT22;21609;49.298;6.844;2023-05-10T04:56:38;19.80;58.20
35497;DHT22;21609;49.298;6.844;2023-05-10T04:59:03;19.80;58.00
35497;DHT22;21609;49.298;6.844;2023-05-10T05:01:29;19.80;58.10
35497;DHT22;21609;49.298;6.844;2023-05-10T05:03:54;19.80;57.90
35497;DHT22;21609;49.298;6.844;2023-05-10T05:06:20;19.80;58.10
35497;DHT22;21609;49.298;6.844;2023-05-10T05:08:50;19.80;58.00
35497;DHT22;21609;49.298;6.844;2023-05-10T05:11:19;19.80;58.10
35497;DHT22;21609;49.298;6.844;2023-05-10T05:13:44;19.80;58.00
35497;DHT22;21609;49.298;6.844;2023-05-10T05:16:10;19.80;58.10
35497;DHT22;21609;49.298;6.844;2023-05-10T05:18:38;19.80;58.20
35497;DHT22;21609;49.298;6.844;2023-05-10T05:21:14;19.80;58.20
35497;DHT22;21609;49.298;6.844;2023-05-10T05:23:40;19.80;58.20
35497;DHT22;21609;49.298;6.844;2023-05-10T05:26:06;19.80;58.00
35497;DHT22;21609;49.298;6.844;2023-05-10T05:28:31;19.80;58.10
35497;DHT22;21609;49.298;6.844;2023-05-10T05:30:59;19.80;58.00
35497;DHT22;21609;49.298;6.844;2023-05-10T05:33:24;19.80;58.20
35497;DHT22;21609;49.298;6.844;2023-05-10T05:35:50;19.80;58.40
35497;DHT22;21609;49.298;6.844;2023-05-10T05:38:16;19.80;58.60
35497;DHT22;21609;49.298;6.844;2023-05-10T05:40:42;19.70;58.10
35497;DHT22;21609;49.298;6.844;2023-05-10T05:43:08;19.80;58.00
35497;DHT22;21609;49.298;6.844;2023-05-10T05:45:33;19.80;58.50
35497;DHT22;21609;49.298;6.844;2023-05-10T05:47:59;19.70;57.80
35497;DHT22;21609;49.298;6.844;2023-05-10T05:50:24;19.70;58.60
35497;DHT22;21609;49.298;6.844;2023-05-10T05:52:50;19.70;58.80
35497;DHT22;21609;49.298;6.844;2023-05-10T05:55:16;19.70;58.90
35497;DHT22;21609;49.298;6.844;2023-05-10T05:57:41;19.70;59.00
35497;DHT22;21609;49.298;6.844;2023-05-10T06:00:07;19.70;59.10
35497;DHT22;21609;49.298;6.844;2023-05-10T06:02:33;19.70;59.10
35497;DHT22;21609;49.298;6.844;2023-05-10T06:04:59;19.70;59.20
35497;DHT22;21609;49.298;6.844;2023-05-10T06:07:24;19.70;58.80
35497;DHT22;21609;49.298;6.844;2023-05-10T06:09:50;19.70;59.10
35497;DHT22;21609;49.298;6.844;2023-05-10T06:12:16;19.80;58.80
35497;DHT22;21609;49.298;6.844;2023-05-10T06:14:42;19.80;59.30
35497;DHT22;21609;49.298;6.844;2023-05-10T06:17:07;19.70;59.40
35497;DHT22;21609;49.298;6.844;2023-05-10T06:19:33;19.80;59.60
35497;DHT22;21609;49.298;6.844;2023-05-10T06:21:58;19.70;59.80
35497;DHT22;21609;49.298;6.844;2023-05-10T06:24:24;19.70;59.10
35497;DHT22;21609;49.298;6.844;2023-05-10T06:26:49;19.70;59.60
35497;DHT22;21609;49.298;6.844;2023-05-10T06:29:15;19.80;58.90
35497;DHT22;21609;49.298;6.844;2023-05-10T06:31:41;19.70;59.90
35497;DHT22;21609;49.298;6.844;2023-05-10T06:34:06;19.70;60.10
35497;DHT22;21609;49.298;6.844;2023-05-10T06:36:33;19.70;59.70
35497;DHT22;21609;49.298;6.844;2023-05-10T06:38:59;19.70;59.30
35497;DHT22;21609;49.298;6.844;2023-05-10T06:41:24;19.70;59.60
35497;DHT22;21609;49.298;6.844;2023-05-10T06:43:50;19.80;59.50
35497;DHT22;21609;49.298;6.844;2023-05-10T06:46:16;19.70;59.20
35497;DHT22;21609;49.298;6.844;2023-05-10T06:48:41;19.70;59.80
35497;DHT22;21609;49.298;6.844;2023-05-10T06:51:07;19.70;59.50
35497;DHT22;21609;49.298;6.844;2023-05-10T06:53:32;19.70;59.30
35497;DHT22;21609;49.298;6.844;2023-05-10T06:55:58;19.80;59.80
35497;DHT22;21609;49.298;6.844;2023-05-10T06:58:23;19.70;59.60
35497;DHT22;21609;49.298;6.844;2023-05-10T07:00:49;19.70;59.30
35497;DHT22;21609;49.298;6.844;2023-05-10T07:03:14;19.80;59.60
35497;DHT22;21609;49.298;6.844;2023-05-10T07:05:40;19.80;59.40
35497;DHT22;21609;49.298;6.844;2023-05-10T07:08:05;19.80;58.80
35497;DHT22;21609;49.298;6.844;2023-05-10T07:10:31;19.80;58.90
35497;DHT22;21609;49.298;6.844;2023-05-10T07:12:57;19.80;58.70
35497;DHT22;21609;49.298;6.844;2023-05-10T07:15:22;19.80;58.60
35497;DHT22;21609;49.298;6.844;2023-05-10T07:17:48;19.70;58.30
35497;DHT22;21609;49.298;6.844;2023-05-10T07:20:13;19.70;58.30
35497;DHT22;21609;49.298;6.844;2023-05-10T07:22:39;19.80;58.40
35497;DHT22;21609;49.298;6.844;2023-05-10T07:25:05;19.80;58.20
35497;DHT22;21609;49.298;6.844;2023-05-10T07:27:31;19.80;58.20
35497;DHT22;21609;49.298;6.844;2023-05-10T07:29:56;19.80;58.20
35497;DHT22;21609;49.298;6.844;2023-05-10T07:32:22;19.80;58.30
35497;DHT22;21609;49.298;6.844;2023-05-10T07:34:48;19.80;58.20
35497;DHT22;21609;49.298;6.844;2023-05-10T07:37:13;19.80;58.30
35497;DHT22;21609;49.298;6.844;2023-05-10T07:39:39;19.80;58.30
35497;DHT22;21609;49.298;6.844;2023-05-10T07:42:04;19.80;58.10
35497;DHT22;21609;49.298;6.844;2023-05-10T07:44:30;19.70;58.50
35497;DHT22;21609;49.298;6.844;2023-05-10T07:46:56;19.80;58.10
35497;DHT22;21609;49.298;6.844;2023-05-10T07:49:22;19.80;58.20
35497;DHT22;21609;49.298;6.844;2023-05-10T07:51:49;19.80;58.30
35497;DHT22;21609;49.298;6.844;2023-05-10T07:54:15;19.80;58.20
35497;DHT22;21609;49.298;6.844;2023-05-10T07:56:40;19.80;58.40
35497;DHT22;21609;49.298;6.844;2023-05-10T07:59:15;19.80;58.20
35497;DHT22;21609;49.298;6.844;2023-05-10T08:01:40;19.80;58.10
35497;DHT22;21609;49.298;6.844;2023-05-10T08:04:06;19.80;58.30
35497;DHT22;21609;49.298;6.844;2023-05-10T08:06:31;19.80;58.70
35497;DHT22;21609;49.298;6.844;2023-05-10T08:08:57;19.80;58.60
35497;DHT22;21609;49.298;6.844;2023-05-10T08:11:23;19.80;58.30
35497;DHT22;21609;49.298;6.844;2023-05-10T08:13:50;19.80;58.40
35497;DHT22;21609;49.298;6.844;2023-05-10T08:16:16;19.80;58.30
35497;DHT22;21609;49.298;6.844;2023-05-10T08:18:44;19.80;58.50
35497;DHT22;21609;49.298;6.844;2023-05-10T08:21:14;19.80;58.20
35497;DHT22;21609;49.298;6.844;2023-05-10T08:23:39;19.80;58.60
35497;DHT22;21609;49.298;6.844;2023-05-10T08:26:06;19.80;58.50
35497;DHT22;21609;49.298;6.844;2023-05-10T08:28:31;19.80;58.40
35497;DHT22;21609;49.298;6.844;2023-05-10T08:30:57;19.90;58.50
35497;DHT22;21609;49.298;6.844;2023-05-10T08:33:22;19.90;58.40
35497;DHT22;21609;49.298;6.844;2023-05-10T08:35:48;19.90;59.00
35497;DHT22;21609;49.298;6.844;2023-05-10T08:38:13;19.90;58.60
35497;DHT22;21609;49.298;6.844;2023-05-10T08:40:43;19.90;58.80
35497;DHT22;21609;49.298;6.844;2023-05-10T08:43:11;19.90;58.70
35497;DHT22;21609;49.298;6.844;2023-05-10T08:45:39;19.90;58.70
35497;DHT22;21609;49.298;6.844;2023-05-10T08:48:14;19.90;58.80
35497;DHT22;21609;49.298;6.844;2023-05-10T08:50:41;20.00;58.60
35497;DHT22;21609;49.298;6.844;2023-05-10T08:53:13;20.00;58.70
35497;DHT22;21609;49.298;6.844;2023-05-10T08:55:39;20.00;58.80
35497;DHT22;21609;49.298;6.844;2023-05-10T08:58:08;20.00;58.70
35497;DHT22;21609;49.298;6.844;2023-05-10T09:00:34;20.00;58.80
35497;DHT22;21609;49.298;6.844;2023-05-10T09:03:01;20.00;58.80
35497;DHT22;21609;49.298;6.844;2023-05-10T09:05:27;20.10;58.90
35497;DHT22;21609;49.298;6.844;2023-05-10T09:07:53;20.00;58.70
35497;DHT22;21609;49.298;6.844;2023-05-10T09:10:19;20.10;58.80
35497;DHT22;21609;49.298;6.844;2023-05-10T09:12:45;20.10;59.00
35497;DHT22;21609;49.298;6.844;2023-05-10T09:15:15;20.10;58.90
35497;DHT22;21609;49.298;6.844;2023-05-10T09:17:41;20.10;58.90
35497;DHT22;21609;49.298;6.844;2023-05-10T09:20:07;20.10;59.10
35497;DHT22;21609;49.298;6.844;2023-05-10T09:22:34;20.10;58.90
35497;DHT22;21609;49.298;6.844;2023-05-10T09:25:13;20.10;58.80
35497;DHT22;21609;49.298;6.844;2023-05-10T09:27:40;20.10;58.70
35497;DHT22;21609;49.298;6.844;2023-05-10T09:30:07;20.10;58.90
35497;DHT22;21609;49.298;6.844;2023-05-10T09:32:40;20.10;58.10
35497;DHT22;21609;49.298;6.844;2023-05-10T09:35:10;20.10;58.80
35497;DHT22;21609;49.298;6.844;2023-05-10T09:37:36;20.10;58.80
35497;DHT22;21609;49.298;6.844;2023-05-10T09:40:08;20.10;58.70
35497;DHT22;21609;49.298;6.844;2023-05-10T09:42:36;20.10;58.40
35497;DHT22;21609;49.298;6.844;2023-05-10T09:45:05;20.10;58.80
35497;DHT22;21609;49.298;6.844;2023-05-10T09:47:33;20.20;58.70
35497;DHT22;21609;49.298;6.844;2023-05-10T09:49:59;20.10;58.50
35497;DHT22;21609;49.298;6.844;2023-05-10T09:52:29;20.20;58.60
35497;DHT22;21609;49.298;6.844;2023-05-10T09:54:55;20.20;58.40
35497;DHT22;21609;49.298;6.844;2023-05-10T09:57:22;20.20;58.20
35497;DHT22;21609;49.298;6.844;2023-05-10T09:59:48;20.20;58.30
35497;DHT22;21609;49.298;6.844;2023-05-10T10:02:15;20.30;58.20
35497;DHT22;21609;49.298;6.844;2023-05-10T10:04:41;20.30;58.00
35497;DHT22;21609;49.298;6.844;2023-05-10T10:07:07;20.30;58.30
35497;DHT22;21609;49.298;6.844;2023-05-10T10:09:34;20.30;58.40
35497;DHT22;21609;49.298;6.844;2023-05-10T10:12:03;20.20;58.40
35497;DHT22;21609;49.298;6.844;2023-05-10T10:14:29;20.30;58.50
35497;DHT22;21609;49.298;6.844;2023-05-10T10:16:55;20.20;58.60
35497;DHT22;21609;49.298;6.844;2023-05-10T10:19:21;20.30;59.00
35497;DHT22;21609;49.298;6.844;2023-05-10T10:21:50;20.30;58.80
35497;DHT22;21609;49.298;6.844;2023-05-10T10:24:16;20.30;58.50
35497;DHT22;21609;49.298;6.844;2023-05-10T10:26:42;20.30;58.40
35497;DHT22;21609;49.298;6.844;2023-05-10T10:29:31;20.30;58.40
35497;DHT22;21609;49.298;6.844;2023-05-10T10:34:29;20.30;58.40
35497;DHT22;21609;49.298;6.844;2023-05-10T10:36:56;20.30;58.30
35497;DHT22;21609;49.298;6.844;2023-05-10T10:39:22;20.30;58.30
35497;DHT22;21609;49.298;6.844;2023-05-10T10:41:54;20.30;58.10
35497;DHT22;21609;49.298;6.844;2023-05-10T10:44:28;20.30;58.30
35497;DHT22;21609;49.298;6.844;2023-05-10T10:49:52;20.30;58.20
35497;DHT22;21609;49.298;6.844;2023-05-10T10:52:34;20.30;58.10
35497;DHT22;21609;49.298;6.844;2023-05-10T10:55:06;20.30;58.10
35497;DHT22;21609;49.298;6.844;2023-05-10T10:57:50;20.30;58.20
35497;DHT22;21609;49.298;6.844;2023-05-10T11:00:26;20.30;57.90
35497;DHT22;21609;49.298;6.844;2023-05-10T11:02:53;20.30;58.10
35497;DHT22;21609;49.298;6.844;2023-05-10T11:05:39;20.30;58.00
35497;DHT22;21609;49.298;6.844;2023-05-10T11:08:18;20.30;57.60
35497;DHT22;21609;49.298;6.844;2023-05-10T11:10:52;20.30;58.30
35497;DHT22;21609;49.298;6.844;2023-05-10T11:14:02;20.30;58.00
35497;DHT22;21609;49.298;6.844;2023-05-10T11:16:23;20.30;57.80
35497;DHT22;21609;49.298;6.844;2023-05-10T11:19:02;20.30;57.90
35497;DHT22;21609;49.298;6.844;2023-05-10T11:21:31;20.30;57.70
35497;DHT22;21609;49.298;6.844;2023-05-10T11:23:59;20.40;57.70
35497;DHT22;21609;49.298;6.844;2023-05-10T11:26:29;20.40;57.70
35497;DHT22;21609;49.298;6.844;2023-05-10T11:28:55;20.40;57.70
35497;DHT22;21609;49.298;6.844;2023-05-10T11:31:22;20.50;57.60
35497;DHT22;21609;49.298;6.844;2023-05-10T11:33:52;20.50;57.50
35497;DHT22;21609;49.298;6.844;2023-05-10T11:36:20;20.50;57.50
35497;DHT22;21609;49.298;6.844;2023-05-10T11:38:46;20.50;57.50
35497;DHT22;21609;49.298;6.844;2023-05-10T11:41:13;20.50;57.50
35497;DHT22;21609;49.298;6.844;2023-05-10T11:43:40;20.60;57.50
35497;DHT22;21609;49.298;6.844;2023-05-10T11:46:10;20.60;57.50
35497;DHT22;21609;49.298;6.844;2023-05-10T11:48:36;20.60;57.50
35497;DHT22;21609;49.298;6.844;2023-05-10T11:51:03;20.70;57.00
35497;DHT22;21609;49.298;6.844;2023-05-10T11:53:30;20.70;57.30
35497;DHT22;21609;49.298;6.844;2023-05-10T11:56:06;20.70;57.30
35497;DHT22;21609;49.298;6.844;2023-05-10T11:58:32;20.70;57.80
35497;DHT22;21609;49.298;6.844;2023-05-10T12:00:59;20.80;57.20
35497;DHT22;21609;49.298;6.844;2023-05-10T12:03:25;20.80;57.10
35497;DHT22;21609;49.298;6.844;2023-05-10T12:05:51;20.80;57.00
35497;DHT22;21609;49.298;6.844;2023-05-10T12:08:21;20.80;57.00
35497;DHT22;21609;49.298;6.844;2023-05-10T12:10:47;20.90;56.70
35497;DHT22;21609;49.298;6.844;2023-05-10T12:13:13;20.90;56.80
35497;DHT22;21609;49.298;6.844;2023-05-10T12:15:40;20.90;56.70
35497;DHT22;21609;49.298;6.844;2023-05-10T12:18:06;20.90;56.80
35497;DHT22;21609;49.298;6.844;2023-05-10T12:20:33;20.90;56.90
35497;DHT22;21609;49.298;6.844;2023-05-10T12:22:59;21.00;56.90
35497;DHT22;21609;49.298;6.844;2023-05-10T12:25:30;21.10;56.90
35497;DHT22;21609;49.298;6.844;2023-05-10T12:27:58;21.10;56.90
35497;DHT22;21609;49.298;6.844;2023-05-10T12:30:28;21.20;56.90
35497;DHT22;21609;49.298;6.844;2023-05-10T12:33:01;21.20;56.70
35497;DHT22;21609;49.298;6.844;2023-05-10T12:35:31;21.30;56.70
35497;DHT22;21609;49.298;6.844;2023-05-10T12:37:57;21.30;56.60
35497;DHT22;21609;49.298;6.844;2023-05-10T12:40:23;21.40;56.70
35497;DHT22;21609;49.298;6.844;2023-05-10T12:42:49;21.40;56.60
35497;DHT22;21609;49.298;6.844;2023-05-10T12:45:14;21.40;56.50
35497;DHT22;21609;49.298;6.844;2023-05-10T12:47:40;21.50;56.60
35497;DHT22;21609;49.298;6.844;2023-05-10T12:50:06;21.50;57.00
35497;DHT22;21609;49.298;6.844;2023-05-10T12:52:32;21.60;56.60
35497;DHT22;21609;49.298;6.844;2023-05-10T12:54:58;21.60;56.50
35497;DHT22;21609;49.298;6.844;2023-05-10T12:57:25;21.60;56.30
35497;DHT22;21609;49.298;6.844;2023-05-10T12:59:50;21.70;56.30
35497;DHT22;21609;49.298;6.844;2023-05-10T13:02:16;21.70;56.40
35497;DHT22;21609;49.298;6.844;2023-05-10T13:04:44;21.80;56.40
35497;DHT22;21609;49.298;6.844;2023-05-10T13:07:10;21.80;56.40
35497;DHT22;21609;49.298;6.844;2023-05-10T13:09:35;21.90;56.40
35497;DHT22;21609;49.298;6.844;2023-05-10T13:12:01;21.90;56.40
35497;DHT22;21609;49.298;6.844;2023-05-10T13:14:27;21.90;56.30
35497;DHT22;21609;49.298;6.844;2023-05-10T13:16:53;22.00;56.40
35497;DHT22;21609;49.298;6.844;2023-05-10T13:19:19;22.00;56.20
35497;DHT22;21609;49.298;6.844;2023-05-10T13:21:44;22.00;55.80
35497;DHT22;21609;49.298;6.844;2023-05-10T13:24:11;22.00;55.80
35497;DHT22;21609;49.298;6.844;2023-05-10T13:26:39;22.00;55.70
35497;DHT22;21609;49.298;6.844;2023-05-10T13:29:04;22.00;55.90
35497;DHT22;21609;49.298;6.844;2023-05-10T13:31:30;22.00;55.70
35497;DHT22;21609;49.298;6.844;2023-05-10T13:33:55;22.00;55.80
35497;DHT22;21609;49.298;6.844;2023-05-10T13:36:21;21.90;55.70
35497;DHT22;21609;49.298;6.844;2023-05-10T13:38:48;21.90;55.80
35497;DHT22;21609;49.298;6.844;2023-05-10T13:41:13;21.90;55.80
35497;DHT22;21609;49.298;6.844;2023-05-10T13:43:39;21.90;55.60
35497;DHT22;21609;49.298;6.844;2023-05-10T13:46:05;21.90;55.60
35497;DHT22;21609;49.298;6.844;2023-05-10T13:48:30;22.00;55.60
35497;DHT22;21609;49.298;6.844;2023-05-10T13:50:56;22.00;55.70
35497;DHT22;21609;49.298;6.844;2023-05-10T13:53:22;22.00;55.90
35497;DHT22;21609;49.298;6.844;2023-05-10T13:55:48;21.90;55.60
35497;DHT22;21609;49.298;6.844;2023-05-10T13:58:14;22.00;55.70
35497;DHT22;21609;49.298;6.844;2023-05-10T14:00:39;22.00;55.50
35497;DHT22;21609;49.298;6.844;2023-05-10T14:03:05;22.00;55.50
35497;DHT22;21609;49.298;6.844;2023-05-10T14:05:32;22.00;55.80
35497;DHT22;21609;49.298;6.844;2023-05-10T14:07:58;22.10;55.40
35497;DHT22;21609;49.298;6.844;2023-05-10T14:10:23;22.10;55.60
35497;DHT22;21609;49.298;6.844;2023-05-10T14:12:49;22.10;55.70
35497;DHT22;21609;49.298;6.844;2023-05-10T14:15:15;22.10;56.70
35497;DHT22;21609;49.298;6.844;2023-05-10T14:17:40;22.00;55.50
35497;DHT22;21609;49.298;6.844;2023-05-10T14:20:07;22.00;55.70
35497;DHT22;21609;49.298;6.844;2023-05-10T14:22:33;22.00;55.60
35497;DHT22;21609;49.298;6.844;2023-05-10T14:24:58;22.00;55.80
35497;DHT22;21609;49.298;6.844;2023-05-10T14:27:24;22.00;55.60
35497;DHT22;21609;49.298;6.844;2023-05-10T14:29:49;22.00;55.20
35497;DHT22;21609;49.298;6.844;2023-05-10T14:32:15;21.90;55.20
35497;DHT22;21609;49.298;6.844;2023-05-10T14:34:40;21.90;55.20
35497;DHT22;21609;49.298;6.844;2023-05-10T14:37:06;21.90;55.40
35497;DHT22;21609;49.298;6.844;2023-05-10T14:39:32;21.90;55.50
35497;DHT22;21609;49.298;6.844;2023-05-10T14:41:58;21.90;55.40
35497;DHT22;21609;49.298;6.844;2023-05-10T14:44:24;21.90;55.60
35497;DHT22;21609;49.298;6.844;2023-05-10T14:46:49;21.90;55.40
35497;DHT22;21609;49.298;6.844;2023-05-10T14:49:15;21.90;55.30
35497;DHT22;21609;49.298;6.844;2023-05-10T14:51:40;21.90;55.40
35497;DHT22;21609;49.298;6.844;2023-05-10T14:54:06;21.90;55.30
35497;DHT22;21609;49.298;6.844;2023-05-10T14:56:32;21.90;55.20
35497;DHT22;21609;49.298;6.844;2023-05-10T14:58:57;21.90;55.10
35497;DHT22;21609;49.298;6.844;2023-05-10T15:01:23;21.90;55.30
35497;DHT22;21609;49.298;6.844;2023-05-10T15:03:49;22.00;55.10
35497;DHT22;21609;49.298;6.844;2023-05-10T15:06:15;22.10;55.20
35497;DHT22;21609;49.298;6.844;2023-05-10T15:08:43;22.10;55.60
35497;DHT22;21609;49.298;6.844;2023-05-10T15:11:09;22.20;55.40
35497;DHT22;21609;49.298;6.844;2023-05-10T15:13:35;22.20;55.50
35497;DHT22;21609;49.298;6.844;2023-05-10T15:16:01;22.30;55.10
35497;DHT22;21609;49.298;6.844;2023-05-10T15:18:26;22.40;55.00
35497;DHT22;21609;49.298;6.844;2023-05-10T15:20:52;22.40;54.70
35497;DHT22;21609;49.298;6.844;2023-05-10T15:23:18;22.40;54.60
35497;DHT22;21609;49.298;6.844;2023-05-10T15:25:43;22.40;54.40
35497;DHT22;21609;49.298;6.844;2023-05-10T15:28:09;22.40;54.20
35497;DHT22;21609;49.298;6.844;2023-05-10T15:30:34;22.50;54.20
35497;DHT22;21609;49.298;6.844;2023-05-10T15:33:00;22.50;54.80
35497;DHT22;21609;49.298;6.844;2023-05-10T15:35:26;22.40;54.20
35497;DHT22;21609;49.298;6.844;2023-05-10T15:37:52;22.40;54.00
35497;DHT22;21609;49.298;6.844;2023-05-10T15:40:17;22.50;54.30
35497;DHT22;21609;49.298;6.844;2023-05-10T15:42:43;22.50;54.40
35497;DHT22;21609;49.298;6.844;2023-05-10T15:45:09;22.50;54.50
35497;DHT22;21609;49.298;6.844;2023-05-10T15:47:36;22.40;54.40
35497;DHT22;21609;49.298;6.844;2023-05-10T15:50:01;22.40;54.50